Terminal Aerodrome Forecast
Issued by NWS Tuscon, AZ

Home | Current Version | Previous Version | Text Only | Print | Product List | Glossary On
Versions: 1 2 3 4 5 6 7 8 9 10 11 12 13 14
000
FTUS45 KTWC 301200 AAA
TAFDUG
TAF AMD
KDUG 301235Z 3013/3112 20005KT P6SM -SHRA SCT025 OVC035
      TEMPO 3013/3016 2SM SHRA SCT010 BKN015
     FM301600 12010KT P6SM -SHRA SCT020 OVC030
     FM310200 10008KT P6SM -SHRA SCT015 OVC025=

USA.gov is the U.S. government's official web portal to all federal, state and local government web resources and services.